EFIV

Ivalo Airport

Ivalo, Finland
METAR EFIV 180520Z AUTO VRB02KT 9999 BKN032 01/M05 Q1043
Observed Flight Rules
Nov-18 @ 05:20 UTC (39 minutes ago) Visual Flight Rules
Wind Visibility Clouds
Variable at 2 knots 10,000+ meters
  • Broken at 3,200' AGL
Temperatures Readings
Current 1°C / 34°F
Dewpoint -5°C / 23°F
Humidity 65%
Altimeter 30.8" Hg
Pressure 1043 hPa
Elevation 148
METAR EFIV 180520Z AUTO VRB02KT 9999 BKN032 01/M05 Q1043
Observed Flight Rules
Nov-18 @ 05:20 UTC
(39 minutes ago)
VFR
Wind Visibility
Variable at 2 knots 10,000+ meters
Clouds
  • Broken at 3,200' AGL
Temperature Dewpoint
1°C / 34°F -5°C / 23°F
Humidity Altimeter Pressure
65% 30.8" Hg 1043 hPa